createdAt,value
2022-12-08T00:00:46.712Z,88.93
2022-12-08T00:03:19.207Z,88.84
2022-12-08T00:06:01.859Z,88.88
2022-12-08T00:08:43.879Z,88.81
2022-12-08T00:11:15.009Z,88.75
2022-12-08T00:13:44.759Z,89.10
2022-12-08T00:16:14.819Z,89.13
2022-12-08T00:18:47.042Z,88.79
2022-12-08T00:21:16.634Z,89.04
2022-12-08T00:23:46.229Z,88.90
2022-12-08T00:26:15.806Z,89.04
2022-12-08T00:28:45.360Z,88.71
2022-12-08T00:31:15.261Z,88.93
2022-12-08T00:33:47.513Z,88.97
2022-12-08T00:36:17.738Z,88.80
2022-12-08T00:38:48.419Z,89.02
2022-12-08T00:41:19.006Z,88.90
2022-12-08T00:43:48.573Z,88.81
2022-12-08T00:46:18.267Z,88.80
2022-12-08T00:48:50.432Z,88.83
2022-12-08T00:51:20.071Z,88.76
2022-12-08T00:53:49.642Z,88.70
2022-12-08T00:56:19.291Z,88.73
2022-12-08T00:58:49.985Z,88.55
2022-12-08T01:01:19.826Z,88.73
2022-12-08T01:03:52.171Z,88.67
2022-12-08T01:06:21.860Z,88.73
2022-12-08T01:08:51.527Z,88.70
2022-12-08T01:11:22.328Z,88.69
2022-12-08T01:13:52.135Z,88.55
2022-12-08T01:16:23.006Z,88.83
2022-12-08T01:18:55.355Z,88.77
2022-12-08T01:21:24.986Z,88.63
2022-12-08T01:23:54.806Z,88.68
2022-12-08T01:26:24.898Z,88.67
2022-12-08T01:28:54.516Z,88.66
2022-12-08T01:31:25.013Z,88.85
2022-12-08T01:33:58.975Z,88.89
2022-12-08T01:36:30.251Z,88.75
2022-12-08T01:39:01.305Z,88.73
2022-12-08T01:41:33.400Z,88.88
2022-12-08T01:44:04.609Z,88.69
2022-12-08T01:46:35.936Z,88.87
2022-12-08T01:49:12.723Z,88.76
2022-12-08T01:51:47.106Z,88.90
2022-12-08T01:54:17.048Z,88.46
2022-12-08T01:56:52.428Z,88.56
2022-12-08T01:59:22.200Z,88.70
2022-12-08T02:01:53.885Z,88.68
2022-12-08T02:04:26.155Z,88.59
2022-12-08T02:06:56.560Z,88.83
2022-12-08T02:09:27.649Z,88.66
2022-12-08T02:11:59.044Z,88.70
2022-12-08T02:14:28.980Z,88.88
2022-12-08T02:17:04.480Z,88.95
2022-12-08T02:19:59.713Z,88.93
2022-12-08T02:22:33.151Z,88.77
2022-12-08T02:25:08.698Z,88.95
2022-12-08T02:27:45.822Z,88.83
2022-12-08T02:30:21.934Z,89.07
2022-12-08T02:33:19.008Z,88.98
2022-12-08T02:35:58.151Z,88.99
2022-12-08T02:38:34.598Z,88.84
2022-12-08T02:41:12.023Z,88.73
2022-12-08T02:43:45.140Z,88.90
2022-12-08T02:46:18.566Z,88.88
2022-12-08T02:48:48.233Z,88.74
2022-12-08T02:51:20.744Z,88.98
2022-12-08T02:53:50.943Z,88.86
2022-12-08T02:56:33.915Z,88.96
2022-12-08T02:59:15.189Z,88.99
2022-12-08T03:01:58.498Z,89.08
2022-12-08T03:04:34.048Z,88.79
2022-12-08T03:07:09.792Z,88.83
2022-12-08T03:09:43.115Z,88.67
2022-12-08T03:12:17.055Z,88.71
2022-12-08T03:14:49.765Z,88.79
2022-12-08T03:17:20.404Z,88.55
2022-12-08T03:19:51.124Z,88.51
2022-12-08T03:22:26.836Z,88.43
2022-12-08T03:24:56.855Z,88.59
2022-12-08T03:27:28.618Z,88.26
2022-12-08T03:29:59.526Z,88.54
2022-12-08T03:32:33.118Z,88.27
2022-12-08T03:35:04.971Z,88.19
2022-12-08T03:37:37.634Z,88.36
2022-12-08T03:40:08.203Z,88.04
2022-12-08T03:42:37.788Z,87.92
2022-12-08T03:45:08.237Z,88.03
2022-12-08T03:47:37.797Z,87.85
2022-12-08T03:50:08.805Z,87.65
2022-12-08T03:52:41.020Z,87.90
2022-12-08T03:55:11.135Z,87.59
2022-12-08T03:57:40.895Z,87.85
2022-12-08T04:00:14.984Z,87.69
2022-12-08T04:02:44.822Z,87.88
2022-12-08T04:05:14.420Z,87.95
2022-12-08T04:07:46.660Z,87.55
2022-12-08T04:10:16.340Z,87.44
2022-12-08T04:12:45.880Z,87.66
2022-12-08T04:15:15.474Z,87.66
2022-12-08T04:17:45.063Z,87.63
2022-12-08T04:20:15.000Z,87.37
2022-12-08T04:22:47.226Z,87.47
2022-12-08T04:25:17.106Z,87.41
2022-12-08T04:27:46.697Z,87.28
2022-12-08T04:30:16.545Z,87.57
2022-12-08T04:32:47.653Z,87.42
2022-12-08T04:35:17.486Z,87.46
2022-12-08T04:37:49.700Z,87.52
2022-12-08T04:40:19.320Z,87.57
2022-12-08T04:42:49.102Z,87.52
2022-12-08T04:45:19.145Z,87.57
2022-12-08T04:47:49.474Z,87.47
2022-12-08T04:50:19.235Z,87.48
2022-12-08T04:52:51.453Z,87.42
2022-12-08T04:55:21.145Z,87.60
2022-12-08T04:57:51.018Z,87.56
2022-12-08T05:00:21.488Z,87.63
2022-12-08T05:02:51.130Z,87.80
2022-12-08T05:05:20.935Z,87.54
2022-12-08T05:07:53.746Z,87.63
2022-12-08T05:10:23.390Z,87.87
2022-12-08T05:12:52.954Z,87.80
2022-12-08T05:15:22.674Z,87.94
2022-12-08T05:17:52.361Z,88.20
2022-12-08T05:20:22.390Z,88.36
2022-12-08T05:22:54.621Z,88.17
2022-12-08T05:25:24.199Z,88.45
2022-12-08T05:28:06.218Z,88.54
2022-12-08T05:30:41.273Z,88.46
2022-12-08T05:33:11.074Z,88.87
2022-12-08T05:35:40.648Z,88.83
2022-12-08T05:38:13.169Z,89.00
2022-12-08T05:40:43.580Z,88.88
2022-12-08T05:43:13.643Z,89.03
2022-12-08T05:45:43.349Z,89.32
2022-12-08T05:48:13.146Z,89.43
2022-12-08T05:50:42.811Z,89.65
2022-12-08T05:53:15.003Z,89.59
2022-12-08T05:55:44.534Z,89.69
2022-12-08T05:58:15.443Z,89.87
2022-12-08T06:00:45.235Z,89.59
2022-12-08T06:03:15.414Z,89.71
2022-12-08T06:05:45.798Z,89.71
2022-12-08T06:08:18.193Z,89.87
2022-12-08T06:10:48.311Z,89.91
2022-12-08T06:13:18.067Z,89.86
2022-12-08T06:15:47.599Z,89.75
2022-12-08T06:18:17.143Z,89.86
2022-12-08T06:20:46.715Z,89.97
2022-12-08T06:23:18.845Z,89.92
2022-12-08T06:25:48.467Z,89.76
2022-12-08T06:28:18.004Z,89.81
2022-12-08T06:30:47.613Z,89.87
2022-12-08T06:33:17.398Z,89.91
2022-12-08T06:35:47.004Z,89.90
2022-12-08T06:38:19.140Z,90.01
2022-12-08T06:40:56.201Z,90.17
2022-12-08T06:43:26.256Z,89.87
2022-12-08T06:45:55.914Z,90.05
2022-12-08T06:48:26.050Z,89.89
2022-12-08T06:50:55.922Z,89.96
2022-12-08T06:53:28.051Z,89.79
2022-12-08T06:55:59.795Z,89.77
2022-12-08T06:58:29.720Z,89.88
2022-12-08T07:00:59.319Z,89.91
2022-12-08T07:03:28.923Z,89.97
2022-12-08T07:06:03.742Z,89.74
2022-12-08T07:08:37.766Z,89.88
2022-12-08T07:11:15.278Z,89.88
2022-12-08T07:13:47.825Z,89.81
2022-12-08T07:16:17.443Z,89.80
2022-12-08T07:18:47.080Z,89.68
2022-12-08T07:21:17.599Z,89.82
2022-12-08T07:23:57.345Z,89.75
2022-12-08T07:26:28.155Z,89.72
2022-12-08T07:28:57.720Z,89.70
2022-12-08T07:31:28.970Z,89.83
2022-12-08T07:33:59.288Z,89.99
2022-12-08T07:36:29.288Z,90.10
2022-12-08T07:39:01.636Z,90.08
2022-12-08T07:41:31.199Z,90.08
2022-12-08T07:44:00.783Z,90.05
2022-12-08T07:46:30.413Z,90.07
2022-12-08T07:49:00.112Z,89.83
2022-12-08T07:51:29.595Z,89.70
2022-12-08T07:54:01.725Z,89.97
2022-12-08T07:56:31.316Z,89.98
2022-12-08T07:59:00.856Z,89.98
2022-12-08T08:01:32.130Z,89.73
2022-12-08T08:04:04.570Z,90.00
2022-12-08T08:06:34.797Z,89.77
2022-12-08T08:09:07.169Z,89.74
2022-12-08T08:11:36.728Z,89.54
2022-12-08T08:14:06.599Z,89.62
2022-12-08T08:16:38.607Z,89.61
2022-12-08T08:19:08.491Z,89.68
2022-12-08T08:21:46.292Z,89.57
2022-12-08T08:24:18.725Z,89.85
2022-12-08T08:26:48.299Z,89.49
2022-12-08T08:29:17.894Z,89.49
2022-12-08T08:31:47.466Z,89.65
2022-12-08T08:34:17.054Z,89.53
2022-12-08T08:36:46.653Z,89.61
2022-12-08T08:39:18.977Z,89.54
2022-12-08T08:41:48.584Z,89.57
2022-12-08T08:44:18.323Z,89.61
2022-12-08T08:46:47.968Z,89.54
2022-12-08T08:49:18.739Z,89.72
2022-12-08T08:51:48.377Z,89.53
2022-12-08T08:54:20.556Z,89.56
2022-12-08T08:56:50.877Z,89.93
2022-12-08T08:59:20.380Z,89.76
2022-12-08T09:01:50.025Z,89.76
2022-12-08T09:04:19.732Z,89.54
2022-12-08T09:06:49.595Z,89.54
2022-12-08T09:09:21.748Z,89.66
2022-12-08T09:11:51.300Z,89.65
2022-12-08T09:14:21.064Z,89.47
2022-12-08T09:16:50.640Z,89.58
2022-12-08T09:19:20.242Z,89.42
2022-12-08T09:21:49.835Z,89.57
2022-12-08T09:24:23.227Z,89.52
2022-12-08T09:26:52.821Z,89.44
2022-12-08T09:29:22.485Z,89.00
2022-12-08T09:31:52.302Z,89.23
2022-12-08T09:34:22.022Z,89.09
2022-12-08T09:36:51.673Z,88.94
2022-12-08T09:39:23.820Z,88.92
2022-12-08T09:41:56.059Z,88.91
2022-12-08T09:44:41.016Z,88.97
2022-12-08T09:47:24.021Z,88.86
2022-12-08T09:50:02.232Z,88.71
2022-12-08T09:52:35.916Z,88.74
2022-12-08T09:55:15.340Z,88.58
2022-12-08T09:57:44.891Z,88.45
2022-12-08T10:00:16.256Z,88.36
2022-12-08T10:02:47.255Z,88.26
2022-12-08T10:05:17.670Z,88.45
2022-12-08T10:07:50.659Z,88.40
2022-12-08T10:10:31.340Z,88.19
2022-12-08T10:13:06.454Z,88.08
2022-12-08T10:15:43.486Z,88.18
2022-12-08T10:18:17.300Z,87.99
2022-12-08T10:20:49.516Z,88.08
2022-12-08T10:23:25.574Z,88.00
2022-12-08T10:26:02.482Z,88.07
2022-12-08T10:28:32.152Z,87.81
2022-12-08T10:31:01.750Z,87.92
2022-12-08T10:33:32.247Z,87.68
2022-12-08T10:36:04.906Z,87.40
2022-12-08T10:38:36.541Z,87.32
2022-12-08T10:41:18.207Z,87.20
2022-12-08T10:43:50.537Z,87.17
2022-12-08T10:46:22.397Z,87.23
2022-12-08T10:48:54.408Z,87.19
2022-12-08T10:51:30.552Z,87.15
2022-12-08T10:54:00.176Z,86.93
2022-12-08T10:56:33.516Z,87.13
2022-12-08T10:59:19.460Z,87.06
2022-12-08T11:01:50.411Z,87.09
2022-12-08T11:04:21.653Z,86.66
2022-12-08T11:06:52.725Z,86.68
2022-12-08T11:09:40.421Z,86.60
2022-12-08T11:12:16.271Z,86.58
2022-12-08T11:14:53.987Z,86.59
2022-12-08T11:17:28.512Z,86.44
2022-12-08T11:20:00.203Z,86.39
2022-12-08T11:22:33.939Z,86.54
2022-12-08T11:25:06.070Z,86.66
2022-12-08T11:27:39.957Z,86.35
2022-12-08T11:30:18.364Z,86.60
2022-12-08T11:32:50.814Z,86.55
2022-12-08T11:35:26.088Z,86.35
2022-12-08T11:38:07.871Z,86.23
2022-12-08T11:40:47.957Z,86.15
2022-12-08T11:43:23.530Z,86.06
2022-12-08T11:45:59.233Z,86.04
2022-12-08T11:48:34.719Z,85.96
2022-12-08T11:51:08.173Z,85.90
2022-12-08T11:53:50.435Z,85.86
2022-12-08T11:56:23.567Z,85.72
2022-12-08T11:58:57.681Z,85.69
2022-12-08T12:01:29.398Z,85.49
2022-12-08T12:04:04.916Z,85.51
2022-12-08T12:06:55.773Z,85.20
2022-12-08T12:09:34.884Z,85.29
2022-12-08T12:12:16.733Z,85.21
2022-12-08T12:15:18.712Z,85.00
2022-12-08T12:17:50.836Z,84.83
2022-12-08T12:20:24.242Z,84.68
2022-12-08T12:22:59.548Z,84.62
2022-12-08T12:25:30.089Z,84.67
2022-12-08T12:28:03.160Z,84.36
2022-12-08T12:30:53.131Z,84.11
2022-12-08T12:33:23.433Z,84.08
2022-12-08T12:35:53.064Z,83.77
2022-12-08T12:38:38.419Z,83.82
2022-12-08T12:41:09.088Z,83.71
2022-12-08T12:43:41.306Z,83.38
2022-12-08T12:46:45.280Z,83.39
2022-12-08T12:49:53.355Z,83.24
2022-12-08T12:52:39.646Z,83.26
2022-12-08T12:55:44.373Z,83.29
2022-12-08T12:58:25.081Z,83.27
2022-12-08T13:01:29.676Z,83.11
2022-12-08T13:04:09.663Z,83.06
2022-12-08T13:06:42.907Z,83.06
2022-12-08T13:09:23.709Z,82.98
2022-12-08T13:11:55.486Z,82.89
2022-12-08T13:14:33.799Z,83.05
2022-12-08T13:17:04.511Z,83.09
2022-12-08T13:19:38.885Z,82.76
2022-12-08T13:22:38.332Z,82.91
2022-12-08T13:25:37.757Z,82.98
2022-12-08T13:28:16.731Z,82.94
2022-12-08T13:30:48.034Z,83.02
2022-12-08T13:33:21.028Z,82.91
2022-12-08T13:35:58.005Z,82.83
2022-12-08T13:38:31.030Z,82.70
2022-12-08T13:41:03.623Z,82.75
2022-12-08T13:43:51.313Z,82.67
2022-12-08T13:53:49.516Z,82.82
2022-12-08T13:58:19.642Z,82.62
2022-12-08T14:01:01.558Z,82.92
2022-12-08T14:03:31.490Z,82.65
2022-12-08T14:06:13.422Z,82.80
2022-12-08T14:09:06.665Z,82.71
2022-12-08T14:11:39.420Z,82.64
2022-12-08T14:14:11.703Z,82.60
2022-12-08T14:16:42.658Z,82.66
2022-12-08T14:19:20.540Z,82.45
2022-12-08T14:21:55.899Z,82.54
2022-12-08T14:24:26.220Z,82.50
2022-12-08T14:26:58.632Z,82.52
2022-12-08T14:29:40.918Z,82.44
2022-12-08T14:32:23.776Z,82.33
2022-12-08T14:34:57.947Z,82.33
2022-12-08T14:37:30.822Z,82.37
2022-12-08T14:40:02.553Z,82.54
2022-12-08T14:42:32.882Z,82.59
2022-12-08T14:45:05.703Z,82.76
2022-12-08T14:47:36.927Z,82.80
2022-12-08T14:50:28.791Z,82.48
2022-12-08T14:53:01.508Z,82.52
2022-12-08T14:55:31.804Z,82.76
2022-12-08T14:58:01.418Z,82.84
2022-12-08T15:00:31.400Z,82.80
2022-12-08T15:03:01.059Z,82.58
2022-12-08T15:05:32.640Z,82.57
2022-12-08T15:08:06.458Z,82.61
2022-12-08T15:10:38.099Z,82.29
2022-12-08T15:13:10.302Z,82.51
2022-12-08T15:15:51.728Z,82.37
2022-12-08T15:18:23.035Z,82.35
2022-12-08T15:20:54.470Z,82.45
2022-12-08T15:23:29.639Z,82.49
2022-12-08T15:25:59.646Z,82.45
2022-12-08T15:28:31.453Z,82.28
2022-12-08T15:31:01.644Z,82.23
2022-12-08T15:33:31.226Z,82.37
2022-12-08T15:36:00.789Z,82.29
2022-12-08T15:38:33.055Z,82.38
2022-12-08T15:41:03.704Z,82.54
2022-12-08T15:43:34.436Z,82.59
2022-12-08T15:46:04.017Z,82.50
2022-12-08T15:48:33.605Z,82.56
2022-12-08T15:51:03.291Z,82.63
2022-12-08T15:53:35.424Z,82.82
2022-12-08T15:58:58.058Z,82.62
2022-12-08T16:01:28.364Z,82.76
2022-12-08T16:07:20.793Z,82.46
2022-12-08T16:09:44.018Z,82.54
2022-12-08T16:12:56.902Z,82.47
2022-12-08T16:15:53.468Z,82.25
2022-12-08T16:18:10.397Z,82.37
2022-12-08T16:21:06.114Z,82.27
2022-12-08T16:23:42.436Z,82.21
2022-12-08T16:26:35.708Z,81.81
2022-12-08T16:29:07.634Z,82.08
2022-12-08T16:31:37.279Z,82.02
2022-12-08T16:34:06.892Z,82.01
2022-12-08T16:36:36.489Z,81.95
2022-12-08T16:39:06.648Z,82.02
2022-12-08T16:41:51.324Z,81.74
2022-12-08T16:44:20.876Z,81.87
2022-12-08T16:46:50.434Z,81.61
2022-12-08T16:49:19.996Z,81.95
2022-12-08T16:51:49.569Z,81.76
2022-12-08T16:54:19.115Z,81.62
2022-12-08T16:56:51.330Z,81.75
2022-12-08T16:59:20.843Z,81.69
2022-12-08T17:01:50.386Z,81.71
2022-12-08T17:04:35.351Z,81.55
2022-12-08T17:07:05.110Z,81.74
2022-12-08T17:09:35.031Z,81.83
2022-12-08T17:12:07.743Z,81.64
2022-12-08T17:14:37.727Z,81.85
2022-12-08T17:17:07.646Z,81.79
2022-12-08T17:19:37.343Z,81.77
2022-12-08T17:22:06.940Z,81.76
2022-12-08T17:24:36.537Z,81.67
2022-12-08T17:27:08.696Z,81.92
2022-12-08T17:29:38.292Z,81.89
2022-12-08T17:32:08.685Z,81.68
2022-12-08T17:34:38.308Z,81.76
2022-12-08T17:37:07.902Z,81.83
2022-12-08T17:39:37.503Z,81.56
2022-12-08T17:42:09.976Z,81.59
2022-12-08T17:44:39.529Z,81.65
2022-12-08T17:47:09.183Z,81.52
2022-12-08T17:49:38.770Z,81.76
2022-12-08T17:52:09.837Z,81.76
2022-12-08T17:54:39.628Z,81.77
2022-12-08T17:57:11.844Z,81.69
2022-12-08T17:59:41.394Z,81.53
2022-12-08T18:02:13.596Z,81.61
2022-12-08T18:04:43.177Z,81.31
2022-12-08T18:07:12.740Z,81.52
2022-12-08T18:09:42.309Z,81.48
2022-12-08T18:12:18.032Z,81.34
2022-12-08T18:14:51.695Z,81.22
2022-12-08T18:17:21.452Z,80.97
2022-12-08T18:19:51.071Z,80.87
2022-12-08T18:22:20.670Z,81.09
2022-12-08T18:24:50.275Z,81.16
2022-12-08T18:27:22.476Z,80.95
2022-12-08T18:29:52.019Z,80.83
2022-12-08T18:32:23.631Z,80.94
2022-12-08T18:34:53.604Z,80.94
2022-12-08T18:37:23.207Z,80.78
2022-12-08T18:39:52.797Z,80.89
2022-12-08T18:42:28.362Z,80.77
2022-12-08T18:45:02.820Z,80.94
2022-12-08T18:47:32.229Z,80.84
2022-12-08T18:50:01.783Z,80.98
2022-12-08T18:52:32.507Z,80.81
2022-12-08T18:55:09.511Z,80.92
2022-12-08T18:57:43.657Z,80.98
2022-12-08T19:00:15.799Z,81.19
2022-12-08T19:02:45.664Z,81.14
2022-12-08T19:05:16.500Z,80.93
2022-12-08T19:07:46.603Z,80.91
2022-12-08T19:10:16.300Z,81.08
2022-12-08T19:12:48.688Z,80.99
2022-12-08T19:15:18.292Z,81.03
2022-12-08T19:17:47.987Z,81.13
2022-12-08T19:20:17.657Z,80.99
2022-12-08T19:22:47.274Z,81.04
2022-12-08T19:25:16.839Z,80.93
2022-12-08T19:27:48.994Z,81.30
2022-12-08T19:30:19.036Z,80.94
2022-12-08T19:32:48.660Z,80.97
2022-12-08T19:35:18.203Z,81.01
2022-12-08T19:37:47.787Z,80.96
2022-12-08T19:40:31.696Z,80.97
2022-12-08T19:43:16.334Z,81.13
2022-12-08T19:45:45.971Z,80.99
2022-12-08T19:48:15.621Z,80.92
2022-12-08T19:50:45.201Z,81.16
2022-12-08T19:53:17.237Z,80.90
2022-12-08T19:55:47.271Z,80.78
2022-12-08T19:58:19.777Z,80.95
2022-12-08T20:00:49.880Z,80.80
2022-12-08T20:03:21.038Z,81.17
2022-12-08T20:05:53.296Z,80.97
2022-12-08T20:08:22.947Z,80.99
2022-12-08T20:10:55.950Z,81.20
2022-12-08T20:13:40.621Z,81.22
2022-12-08T20:16:11.435Z,81.25
2022-12-08T20:18:42.173Z,81.22
2022-12-08T20:21:12.786Z,81.14
2022-12-08T20:23:42.416Z,81.42
2022-12-08T20:26:15.387Z,81.30
2022-12-08T20:28:47.607Z,81.59
2022-12-08T20:31:21.231Z,81.74
2022-12-08T20:33:51.246Z,81.82
2022-12-08T20:36:22.158Z,81.81
2022-12-08T20:38:53.586Z,81.77
2022-12-08T20:41:25.299Z,81.84
2022-12-08T20:43:57.556Z,81.84
2022-12-08T20:46:27.220Z,82.07
2022-12-08T20:49:01.221Z,82.08
2022-12-08T20:51:32.199Z,81.96
2022-12-08T20:54:02.471Z,82.28
2022-12-08T20:56:32.419Z,82.35
2022-12-08T20:59:04.641Z,82.38
2022-12-08T21:01:34.487Z,82.32
2022-12-08T21:04:04.446Z,82.53
2022-12-08T21:06:34.167Z,82.37
2022-12-08T21:09:03.871Z,82.03
2022-12-08T21:11:33.796Z,82.01
2022-12-08T21:14:06.855Z,82.07
2022-12-08T21:16:36.651Z,82.07
2022-12-08T21:19:06.676Z,82.00
2022-12-08T21:21:36.570Z,81.70
2022-12-08T21:24:06.919Z,81.70
2022-12-08T21:26:36.593Z,81.81
2022-12-08T21:29:08.874Z,81.76
2022-12-08T21:31:38.649Z,81.81
2022-12-08T21:34:08.375Z,81.73
2022-12-08T21:36:38.173Z,81.74
2022-12-08T21:39:12.856Z,81.60
2022-12-08T21:41:55.086Z,81.67
2022-12-08T21:44:27.457Z,81.43
2022-12-08T21:46:57.157Z,81.57
2022-12-08T21:49:26.928Z,81.17
2022-12-08T21:51:56.705Z,81.49
2022-12-08T21:54:26.550Z,81.15
2022-12-08T21:56:56.194Z,81.04
2022-12-08T21:59:28.489Z,81.15
2022-12-08T22:01:58.607Z,81.12
2022-12-08T22:04:28.574Z,80.94
2022-12-08T22:06:58.409Z,81.17
2022-12-08T22:09:28.169Z,81.07
2022-12-08T22:11:59.050Z,81.08
2022-12-08T22:14:31.365Z,81.07
2022-12-08T22:17:01.279Z,81.22
2022-12-08T22:19:30.984Z,81.22
2022-12-08T22:22:00.762Z,81.32
2022-12-08T22:24:32.966Z,81.32
2022-12-08T22:27:02.848Z,81.50
2022-12-08T22:29:35.286Z,81.56
2022-12-08T22:32:05.237Z,81.41
2022-12-08T22:34:35.148Z,81.61
2022-12-08T22:37:04.893Z,81.33
2022-12-08T22:39:35.845Z,81.29
2022-12-08T22:42:05.702Z,81.36
2022-12-08T22:44:38.099Z,81.24
2022-12-08T22:47:08.278Z,81.23
2022-12-08T22:49:38.142Z,81.41
2022-12-08T22:52:08.255Z,81.28
2022-12-08T22:54:38.428Z,81.16
2022-12-08T22:57:08.049Z,81.13
2022-12-08T22:59:40.972Z,81.30
2022-12-08T23:02:10.949Z,81.24
2022-12-08T23:04:40.817Z,81.27
2022-12-08T23:07:10.678Z,81.09
2022-12-08T23:09:40.249Z,81.15
2022-12-08T23:12:10.176Z,81.30
2022-12-08T23:14:42.381Z,81.37
2022-12-08T23:17:12.081Z,81.27
2022-12-08T23:19:42.018Z,81.25
2022-12-08T23:22:11.611Z,81.01
2022-12-08T23:24:41.296Z,81.10
2022-12-08T23:27:10.836Z,81.28
2022-12-08T23:29:43.039Z,81.14
2022-12-08T23:32:12.711Z,81.07
2022-12-08T23:34:42.637Z,81.17
2022-12-08T23:37:12.236Z,80.99
2022-12-08T23:39:41.844Z,81.10
2022-12-08T23:42:11.545Z,81.24
2022-12-08T23:44:43.823Z,81.14
2022-12-08T23:47:13.506Z,81.14
2022-12-08T23:49:43.145Z,81.08
2022-12-08T23:52:14.372Z,81.15
2022-12-08T23:54:44.958Z,80.94
2022-12-08T23:57:14.746Z,81.07
2022-12-08T23:59:47.283Z,80.98
